createdAt,value
2022-12-25T00:01:16.534Z,29.20
2022-12-25T00:03:46.982Z,33.65
2022-12-25T00:06:18.927Z,31.73
2022-12-25T00:08:47.582Z,33.08
2022-12-25T00:11:19.867Z,32.35
2022-12-25T00:13:49.284Z,32.58
2022-12-25T00:16:21.253Z,31.73
2022-12-25T00:18:51.862Z,32.45
2022-12-25T00:21:21.753Z,33.13
2022-12-25T00:23:57.082Z,31.75
2022-12-25T00:28:56.538Z,30.63
2022-12-25T00:31:26.994Z,32.53
2022-12-25T00:33:57.164Z,31.98
2022-12-25T00:36:25.882Z,32.22
2022-12-25T00:38:55.083Z,31.52
2022-12-25T00:41:40.323Z,32.03
2022-12-25T00:44:10.340Z,32.15
2022-12-25T00:46:39.328Z,32.28
2022-12-25T00:49:11.294Z,34.13
2022-12-25T00:51:41.560Z,32.42
2022-12-25T00:54:11.274Z,33.13
2022-12-25T00:56:40.166Z,32.80
2022-12-25T00:59:08.737Z,33.17
2022-12-25T01:01:40.448Z,32.63
2022-12-25T01:04:11.680Z,34.30
2022-12-25T01:06:40.708Z,36.17
2022-12-25T01:09:27.211Z,35.53
2022-12-25T01:11:55.763Z,36.10
2022-12-25T01:14:25.529Z,36.90
2022-12-25T01:16:54.258Z,36.42
2022-12-25T01:19:25.752Z,36.22
2022-12-25T01:21:54.391Z,38.13
2022-12-25T01:24:23.209Z,39.85
2022-12-25T01:26:51.860Z,39.17
2022-12-25T01:29:22.636Z,38.90
2022-12-25T01:31:51.469Z,37.50
2022-12-25T01:34:19.954Z,40.03
2022-12-25T01:36:53.341Z,38.28
2022-12-25T01:39:25.588Z,39.00
2022-12-25T01:41:54.527Z,37.70
2022-12-25T01:45:39.012Z,35.70
2022-12-25T01:48:15.806Z,36.78
2022-12-25T01:50:53.017Z,35.75
2022-12-25T01:53:23.395Z,34.00
2022-12-25T01:55:56.448Z,36.22
2022-12-25T01:58:26.035Z,36.05
2022-12-25T02:00:55.263Z,35.50
2022-12-25T02:03:24.864Z,35.97
2022-12-25T02:05:53.878Z,33.85
2022-12-25T02:08:24.771Z,35.28
2022-12-25T02:10:53.092Z,34.15
2022-12-25T02:13:22.070Z,34.25
2022-12-25T02:16:02.134Z,35.28
2022-12-25T02:18:38.740Z,34.45
2022-12-25T02:21:45.550Z,34.05
2022-12-25T02:24:51.069Z,32.85
2022-12-25T02:28:02.263Z,34.28
2022-12-25T02:30:36.867Z,34.15
2022-12-25T02:33:32.940Z,34.35
2022-12-25T02:36:08.482Z,31.02
2022-12-25T02:39:00.166Z,34.80
2022-12-25T02:41:30.620Z,33.25
2022-12-25T02:44:22.422Z,34.60
2022-12-25T02:47:08.993Z,35.50
2022-12-25T02:49:56.187Z,32.47
2022-12-25T02:52:44.321Z,33.97
2022-12-25T02:55:34.828Z,32.90
2022-12-25T02:58:28.409Z,33.78
2022-12-25T03:01:24.103Z,33.03
2022-12-25T03:04:14.148Z,31.80
2022-12-25T03:06:44.314Z,33.25
2022-12-25T03:09:34.422Z,30.98
2022-12-25T03:12:11.174Z,31.65
2022-12-25T03:14:59.419Z,32.47
2022-12-25T03:17:30.461Z,28.95
2022-12-25T03:20:17.352Z,30.60
2022-12-25T03:23:04.921Z,30.38
2022-12-25T03:25:50.993Z,30.85
2022-12-25T03:28:19.582Z,31.33
2022-12-25T03:31:14.141Z,31.25
2022-12-25T03:34:30.756Z,31.60
2022-12-25T03:37:25.959Z,32.00
2022-12-25T03:40:22.604Z,33.33
2022-12-25T03:43:16.903Z,32.30
2022-12-25T03:46:09.283Z,31.63
2022-12-25T03:49:01.277Z,32.15
2022-12-25T03:51:54.338Z,32.70
2022-12-25T03:54:45.442Z,33.15
2022-12-25T03:57:32.894Z,34.33
2022-12-25T04:00:23.885Z,32.97
2022-12-25T04:03:09.678Z,36.30
2022-12-25T04:05:55.651Z,35.10
2022-12-25T04:08:43.001Z,33.90
2022-12-25T04:11:29.034Z,35.67
2022-12-25T04:14:23.278Z,36.88
2022-12-25T04:17:09.079Z,34.03
2022-12-25T04:22:51.980Z,34.13
2022-12-25T04:25:39.438Z,35.08
2022-12-25T04:28:25.295Z,35.97
2022-12-25T04:31:11.727Z,35.55
2022-12-25T04:33:57.719Z,38.25
2022-12-25T04:36:26.207Z,36.13
2022-12-25T04:38:54.697Z,38.90
2022-12-25T04:41:24.421Z,36.78
2022-12-25T04:43:52.943Z,34.35
2022-12-25T04:46:21.412Z,38.47
2022-12-25T04:48:49.881Z,38.40
2022-12-25T04:51:20.657Z,37.40
2022-12-25T04:53:50.868Z,37.78
2022-12-25T04:56:20.746Z,40.47
2022-12-25T04:58:50.694Z,38.88
2022-12-25T05:01:19.290Z,39.10
2022-12-25T05:03:47.793Z,38.65
2022-12-25T05:06:16.316Z,40.15
2022-12-25T05:08:44.864Z,39.70
2022-12-25T05:11:16.832Z,40.72
2022-12-25T05:13:45.838Z,38.15
2022-12-25T05:16:18.340Z,39.55
2022-12-25T05:18:49.325Z,38.65
2022-12-25T05:21:18.095Z,39.40
2022-12-25T05:23:49.589Z,37.30
2022-12-25T05:26:21.096Z,36.42
2022-12-25T05:28:50.451Z,36.30
2022-12-25T05:31:21.435Z,35.60
2022-12-25T05:33:53.025Z,33.83
2022-12-25T05:36:21.879Z,32.15
2022-12-25T05:38:51.112Z,31.05
2022-12-25T05:41:20.015Z,29.58
2022-12-25T05:43:48.797Z,29.73
2022-12-25T05:46:18.004Z,27.38
2022-12-25T05:48:48.416Z,27.20
2022-12-25T05:51:20.146Z,26.10
2022-12-25T05:53:48.859Z,24.00
2022-12-25T05:56:17.169Z,22.80
2022-12-25T05:58:45.701Z,24.92
2022-12-25T06:01:17.922Z,21.77
2022-12-25T06:03:49.098Z,22.13
2022-12-25T06:06:17.522Z,21.27
2022-12-25T06:08:46.174Z,20.38
2022-12-25T06:11:17.031Z,21.25
2022-12-25T06:13:45.498Z,21.30
2022-12-25T06:16:14.439Z,19.58
2022-12-25T06:18:45.859Z,19.50
2022-12-25T06:21:20.079Z,18.05
2022-12-25T06:23:49.437Z,18.15
2022-12-25T06:26:23.392Z,18.42
2022-12-25T06:28:52.328Z,18.77
2022-12-25T06:31:24.218Z,17.92
2022-12-25T06:33:53.246Z,17.23
2022-12-25T06:36:25.818Z,16.25
2022-12-25T06:39:01.674Z,17.08
2022-12-25T06:41:32.063Z,17.38
2022-12-25T06:44:02.673Z,17.63
2022-12-25T06:46:32.220Z,16.25
2022-12-25T06:49:01.638Z,18.73
2022-12-25T06:51:33.296Z,16.75
2022-12-25T06:54:04.022Z,16.85
2022-12-25T06:56:34.327Z,16.58
2022-12-25T06:59:05.731Z,16.33
2022-12-25T07:01:39.011Z,15.82
2022-12-25T07:04:13.380Z,14.88
2022-12-25T07:06:44.226Z,15.27
2022-12-25T07:09:13.060Z,15.95
2022-12-25T07:11:41.440Z,15.57
2022-12-25T07:14:21.824Z,15.55
2022-12-25T07:16:52.655Z,14.23
2022-12-25T07:19:21.154Z,13.52
2022-12-25T07:21:50.985Z,14.15
2022-12-25T07:24:21.644Z,14.32
2022-12-25T07:26:53.319Z,13.60
2022-12-25T07:29:22.045Z,13.60
2022-12-25T07:31:51.338Z,14.32
2022-12-25T07:34:20.648Z,13.77
2022-12-25T07:36:50.875Z,14.65
2022-12-25T07:39:19.507Z,14.90
2022-12-25T07:41:48.873Z,13.80
2022-12-25T07:44:19.646Z,14.63
2022-12-25T07:46:48.596Z,14.48
2022-12-25T07:49:17.280Z,14.68
2022-12-25T07:51:45.687Z,14.57
2022-12-25T07:54:15.908Z,15.57
2022-12-25T07:56:44.548Z,15.02
2022-12-25T07:59:13.087Z,15.40
2022-12-25T08:01:41.564Z,15.95
2022-12-25T08:04:11.760Z,15.45
2022-12-25T08:06:40.987Z,15.80
2022-12-25T08:09:11.621Z,15.45
2022-12-25T08:11:47.054Z,16.23
2022-12-25T08:14:17.253Z,15.88
2022-12-25T08:16:47.400Z,18.08
2022-12-25T08:19:16.293Z,15.77
2022-12-25T08:21:45.073Z,16.30
2022-12-25T08:24:13.451Z,16.02
2022-12-25T08:26:43.430Z,15.48
2022-12-25T08:29:12.671Z,15.38
2022-12-25T08:31:46.463Z,16.05
2022-12-25T08:34:15.846Z,14.80
2022-12-25T08:36:44.631Z,13.45
2022-12-25T08:39:15.104Z,13.02
2022-12-25T08:41:45.993Z,12.25
2022-12-25T08:44:15.059Z,12.75
2022-12-25T08:46:44.445Z,12.05
2022-12-25T08:49:13.619Z,11.02
2022-12-25T08:51:42.438Z,11.07
2022-12-25T08:54:11.282Z,11.20
2022-12-25T08:56:40.195Z,10.90
2022-12-25T08:59:11.849Z,11.68
2022-12-25T09:01:41.127Z,12.13
2022-12-25T09:04:10.337Z,13.05
2022-12-25T09:06:39.772Z,13.02
2022-12-25T09:09:11.609Z,12.82
2022-12-25T09:11:40.405Z,11.68
2022-12-25T09:14:10.911Z,12.27
2022-12-25T09:16:39.892Z,12.27
2022-12-25T09:19:08.781Z,12.80
2022-12-25T09:21:37.906Z,12.38
2022-12-25T09:24:07.400Z,12.65
2022-12-25T09:26:35.983Z,13.32
2022-12-25T09:29:04.655Z,12.98
2022-12-25T09:31:34.931Z,13.00
2022-12-25T09:34:03.712Z,11.95
2022-12-25T09:36:35.587Z,13.32
2022-12-25T09:39:05.044Z,11.80
2022-12-25T09:41:39.475Z,11.88
2022-12-25T09:44:12.582Z,12.57
2022-12-25T09:46:53.276Z,12.75
2022-12-25T09:49:29.497Z,11.43
2022-12-25T09:52:04.366Z,11.65
2022-12-25T09:54:43.547Z,11.98
2022-12-25T09:57:15.321Z,11.68
2022-12-25T09:59:47.682Z,10.90
2022-12-25T10:03:07.688Z,11.38
2022-12-25T10:05:57.062Z,10.73
2022-12-25T10:08:59.596Z,10.70
2022-12-25T10:11:44.581Z,10.68
2022-12-25T10:14:26.902Z,11.48
2022-12-25T10:17:12.986Z,11.60
2022-12-25T10:19:52.045Z,11.43
2022-12-25T10:22:28.690Z,11.05
2022-12-25T10:25:00.142Z,10.88
2022-12-25T10:27:33.686Z,10.80
2022-12-25T10:30:14.491Z,10.55
2022-12-25T10:32:48.920Z,11.00
2022-12-25T10:35:27.704Z,11.33
2022-12-25T10:38:04.268Z,10.40
2022-12-25T10:40:45.593Z,11.20
2022-12-25T10:43:20.033Z,10.20
2022-12-25T10:45:51.121Z,10.60
2022-12-25T10:48:26.583Z,10.90
2022-12-25T10:50:57.891Z,11.63
2022-12-25T10:53:32.398Z,12.05
2022-12-25T10:56:04.370Z,10.23
2022-12-25T10:58:35.341Z,11.18
2022-12-25T11:01:06.896Z,11.35
2022-12-25T11:03:39.298Z,10.43
2022-12-25T11:06:25.575Z,11.13
2022-12-25T11:09:01.398Z,10.10
2022-12-25T11:11:31.347Z,10.05
2022-12-25T11:14:03.434Z,9.60
2022-12-25T11:16:36.552Z,9.50
2022-12-25T11:19:24.045Z,8.68
2022-12-25T11:21:56.879Z,9.02
2022-12-25T11:24:30.528Z,10.38
2022-12-25T11:27:02.863Z,10.07
2022-12-25T11:29:45.161Z,9.15
2022-12-25T11:32:23.958Z,10.00
2022-12-25T11:34:54.816Z,9.50
2022-12-25T11:37:32.085Z,9.98
2022-12-25T11:40:01.256Z,10.05
2022-12-25T11:42:37.749Z,10.60
2022-12-25T11:45:12.612Z,9.70
2022-12-25T11:47:47.380Z,10.13
2022-12-25T11:50:27.060Z,11.48
2022-12-25T11:53:01.272Z,10.38
2022-12-25T11:55:41.191Z,11.57
2022-12-25T11:58:19.648Z,12.30
2022-12-25T12:00:51.521Z,10.85
2022-12-25T12:03:27.183Z,11.23
2022-12-25T12:06:00.456Z,11.93
2022-12-25T12:08:32.941Z,12.60
2022-12-25T12:11:20.121Z,11.35
2022-12-25T12:14:21.069Z,13.50
2022-12-25T12:16:50.314Z,23.83
2022-12-25T12:19:35.082Z,23.00
2022-12-25T12:22:05.783Z,22.25
2022-12-25T12:24:40.320Z,15.50
2022-12-25T12:27:26.616Z,13.75
2022-12-25T12:30:01.610Z,12.88
2022-12-25T12:32:49.575Z,12.82
2022-12-25T12:35:29.061Z,13.02
2022-12-25T12:38:01.222Z,13.63
2022-12-25T12:40:37.640Z,12.82
2022-12-25T12:43:08.892Z,13.55
2022-12-25T12:45:39.685Z,13.95
2022-12-25T12:48:17.733Z,14.07
2022-12-25T12:50:46.733Z,14.63
2022-12-25T12:53:32.279Z,13.82
2022-12-25T12:56:15.305Z,15.40
2022-12-25T12:58:50.094Z,14.18
2022-12-25T13:01:54.722Z,15.73
2022-12-25T13:04:53.784Z,15.30
2022-12-25T13:07:48.645Z,15.85
2022-12-25T13:10:30.837Z,27.92
2022-12-25T13:13:06.285Z,18.27
2022-12-25T13:18:08.046Z,17.67
2022-12-25T13:20:47.023Z,18.15
2022-12-25T13:23:27.889Z,18.25
2022-12-25T13:25:58.899Z,17.95
2022-12-25T13:28:34.636Z,21.88
2022-12-25T13:31:07.076Z,19.85
2022-12-25T13:33:36.766Z,18.95
2022-12-25T13:36:11.406Z,21.90
2022-12-25T13:38:45.219Z,23.27
2022-12-25T13:41:38.071Z,22.33
2022-12-25T13:44:20.706Z,26.40
2022-12-25T13:46:49.540Z,20.58
2022-12-25T13:49:20.720Z,19.77
2022-12-25T13:51:51.626Z,25.65
2022-12-25T13:54:20.817Z,21.08
2022-12-25T13:56:51.983Z,22.45
2022-12-25T13:59:26.810Z,25.00
2022-12-25T14:01:57.825Z,27.90
2022-12-25T14:04:26.731Z,22.63
2022-12-25T14:06:55.452Z,20.98
2022-12-25T14:09:24.511Z,20.92
2022-12-25T14:11:54.838Z,21.55
2022-12-25T14:14:26.853Z,23.17
2022-12-25T14:17:01.298Z,21.85
2022-12-25T14:19:32.694Z,20.77
2022-12-25T14:22:04.634Z,24.70
2022-12-25T14:24:35.827Z,28.58
2022-12-25T14:27:18.192Z,22.20
2022-12-25T14:29:50.603Z,20.20
2022-12-25T14:32:22.832Z,24.98
2022-12-25T14:34:56.438Z,26.52
2022-12-25T14:37:30.896Z,25.13
2022-12-25T14:40:05.197Z,21.95
2022-12-25T14:42:37.675Z,21.70
2022-12-25T14:45:27.780Z,20.67
2022-12-25T14:48:00.578Z,20.92
2022-12-25T14:50:33.446Z,19.85
2022-12-25T14:53:04.663Z,21.52
2022-12-25T14:55:33.789Z,22.23
2022-12-25T14:58:07.899Z,20.80
2022-12-25T15:00:40.425Z,19.33
2022-12-25T15:03:24.805Z,21.00
2022-12-25T15:06:01.726Z,25.30
2022-12-25T15:08:33.245Z,22.05
2022-12-25T15:11:05.892Z,20.15
2022-12-25T15:13:36.850Z,20.75
2022-12-25T15:16:15.691Z,19.98
2022-12-25T15:18:46.952Z,21.10
2022-12-25T15:21:19.618Z,21.48
2022-12-25T15:23:48.484Z,21.63
2022-12-25T15:26:17.877Z,23.25
2022-12-25T15:28:46.988Z,23.48
2022-12-25T15:31:25.211Z,24.00
2022-12-25T15:33:55.259Z,24.27
2022-12-25T15:36:25.065Z,25.85
2022-12-25T15:38:54.842Z,26.88
2022-12-25T15:41:46.475Z,25.02
2022-12-25T15:44:15.346Z,23.67
2022-12-25T15:46:46.221Z,24.45
2022-12-25T15:49:18.691Z,24.38
2022-12-25T15:51:48.350Z,24.63
2022-12-25T15:54:17.089Z,30.23
2022-12-25T15:56:51.166Z,29.77
2022-12-25T15:59:21.524Z,34.40
2022-12-25T16:01:54.334Z,27.52
2022-12-25T16:04:24.923Z,28.30
2022-12-25T16:06:55.635Z,27.02
2022-12-25T16:09:24.485Z,28.08
2022-12-25T16:11:53.633Z,28.08
2022-12-25T16:14:23.543Z,30.98
2022-12-25T16:16:54.375Z,32.38
2022-12-25T16:19:23.299Z,31.20
2022-12-25T16:21:52.080Z,29.35
2022-12-25T16:24:20.553Z,28.95
2022-12-25T16:26:49.222Z,30.75
2022-12-25T16:29:18.596Z,31.65
2022-12-25T16:31:47.262Z,29.23
2022-12-25T16:34:19.795Z,28.83
2022-12-25T16:36:48.283Z,29.48
2022-12-25T16:39:16.864Z,30.73
2022-12-25T16:41:45.518Z,85.13
2022-12-25T16:44:14.994Z,32.88
2022-12-25T16:46:45.479Z,29.52
2022-12-25T16:49:14.084Z,31.02
2022-12-25T16:51:44.381Z,37.45
2022-12-25T16:54:12.915Z,30.55
2022-12-25T16:56:41.642Z,32.78
2022-12-25T16:59:10.511Z,32.80
2022-12-25T17:01:44.279Z,31.80
2022-12-25T17:04:15.419Z,32.10
2022-12-25T17:06:47.681Z,33.13
2022-12-25T17:09:16.410Z,30.90
2022-12-25T17:11:45.003Z,31.60
2022-12-25T17:14:16.344Z,33.05
2022-12-25T17:16:45.572Z,34.28
2022-12-25T17:19:20.617Z,37.97
2022-12-25T17:21:57.536Z,33.15
2022-12-25T17:24:30.886Z,35.50
2022-12-25T17:27:01.109Z,37.13
2022-12-25T17:29:33.040Z,34.83
2022-12-25T17:32:01.835Z,52.65
2022-12-25T17:34:30.813Z,83.88
2022-12-25T17:37:01.048Z,55.75
2022-12-25T17:39:29.901Z,170.95
2022-12-25T17:41:58.878Z,102.43
2022-12-25T17:44:28.068Z,67.55
2022-12-25T17:46:57.533Z,53.03
2022-12-25T17:49:26.878Z,41.70
2022-12-25T17:51:55.642Z,35.78
2022-12-25T17:54:25.900Z,32.85
2022-12-25T17:56:54.854Z,34.72
2022-12-25T17:59:29.000Z,32.38
2022-12-25T18:01:58.205Z,34.90
2022-12-25T18:04:27.274Z,67.32
2022-12-25T18:06:56.187Z,59.67
2022-12-25T18:09:26.181Z,42.72
2022-12-25T18:11:55.083Z,35.28
2022-12-25T18:14:23.786Z,33.30
2022-12-25T18:16:52.986Z,33.28
2022-12-25T18:19:22.839Z,32.05
2022-12-25T18:21:52.652Z,33.08
2022-12-25T18:24:23.052Z,32.42
2022-12-25T18:26:53.713Z,31.45
2022-12-25T18:29:23.177Z,32.28
2022-12-25T18:31:54.319Z,32.47
2022-12-25T18:34:23.505Z,32.42
2022-12-25T18:36:52.008Z,33.95
2022-12-25T18:39:21.139Z,33.85
2022-12-25T18:42:07.576Z,32.50
2022-12-25T18:44:38.479Z,32.20
2022-12-25T18:47:07.368Z,32.92
2022-12-25T18:49:36.697Z,33.60
2022-12-25T18:52:49.712Z,32.55
2022-12-25T18:55:07.666Z,33.72
2022-12-25T18:57:41.161Z,39.72
2022-12-25T19:00:15.748Z,40.25
2022-12-25T19:02:45.515Z,41.58
2022-12-25T19:05:16.856Z,37.28
2022-12-25T19:07:47.475Z,37.33
2022-12-25T19:10:16.988Z,37.08
2022-12-25T19:12:46.696Z,36.15
2022-12-25T19:15:20.299Z,35.22
2022-12-25T19:17:50.880Z,36.00
2022-12-25T19:20:21.360Z,35.00
2022-12-25T19:22:50.845Z,37.08
2022-12-25T19:25:20.568Z,37.55
2022-12-25T19:27:54.570Z,37.60
2022-12-25T19:30:26.033Z,39.13
2022-12-25T19:33:01.795Z,39.38
2022-12-25T19:35:34.181Z,40.78
2022-12-25T19:38:09.907Z,39.97
2022-12-25T19:40:40.665Z,39.38
2022-12-25T19:43:12.693Z,42.38
2022-12-25T19:45:56.376Z,45.88
2022-12-25T19:48:31.275Z,45.70
2022-12-25T19:51:03.851Z,47.20
2022-12-25T19:53:36.433Z,41.20
2022-12-25T19:56:10.651Z,40.92
2022-12-25T19:58:43.008Z,42.10
2022-12-25T20:01:17.985Z,41.80
2022-12-25T20:03:49.603Z,40.58
2022-12-25T20:06:26.495Z,57.45
2022-12-25T20:08:57.775Z,51.85
2022-12-25T20:11:30.003Z,45.10
2022-12-25T20:14:04.317Z,44.42
2022-12-25T20:16:39.094Z,48.20
2022-12-25T20:19:16.119Z,71.78
2022-12-25T20:21:47.435Z,100.68
2022-12-25T20:24:18.119Z,103.88
2022-12-25T20:26:48.065Z,79.72
2022-12-25T20:29:20.751Z,64.22
2022-12-25T20:31:51.747Z,56.47
2022-12-25T20:34:24.639Z,46.55
2022-12-25T20:36:54.012Z,57.40
2022-12-25T20:39:26.300Z,88.90
2022-12-25T20:41:55.853Z,98.53
2022-12-25T20:44:25.486Z,104.30
2022-12-25T20:47:04.198Z,216.88
2022-12-25T20:49:36.458Z,120.40
2022-12-25T20:52:07.654Z,185.95
2022-12-25T20:54:38.087Z,140.45
2022-12-25T20:57:10.362Z,59.60
2022-12-25T20:59:44.259Z,73.85
2022-12-25T21:02:35.337Z,116.55
2022-12-25T21:05:05.797Z,138.55
2022-12-25T21:07:35.914Z,144.68
2022-12-25T21:10:07.655Z,113.47
2022-12-25T21:12:39.923Z,85.75
2022-12-25T21:15:15.667Z,68.10
2022-12-25T21:17:51.687Z,88.95
2022-12-25T21:20:28.285Z,69.47
2022-12-25T21:23:03.813Z,40.58
2022-12-25T21:25:33.954Z,34.08
2022-12-25T21:28:03.252Z,33.08
2022-12-25T21:30:32.067Z,34.47
2022-12-25T21:33:19.946Z,34.40
2022-12-25T21:35:48.832Z,32.42
2022-12-25T21:38:17.805Z,30.63
2022-12-25T21:40:46.951Z,32.28
2022-12-25T21:43:17.964Z,31.00
2022-12-25T21:45:48.160Z,32.13
2022-12-25T21:48:18.232Z,31.70
2022-12-25T21:51:04.119Z,33.38
2022-12-25T21:53:32.833Z,32.78
2022-12-25T21:56:03.097Z,33.47
2022-12-25T21:58:31.887Z,33.00
2022-12-25T22:01:04.426Z,33.28
2022-12-25T22:03:35.060Z,33.80
2022-12-25T22:06:21.837Z,34.25
2022-12-25T22:08:53.786Z,32.33
2022-12-25T22:11:39.879Z,34.33
2022-12-25T22:14:51.558Z,32.47
2022-12-25T22:17:41.575Z,33.63
2022-12-25T22:20:15.540Z,33.80
2022-12-25T22:22:44.578Z,34.13
2022-12-25T22:25:14.787Z,32.60
2022-12-25T22:27:46.292Z,35.70
2022-12-25T22:30:17.946Z,39.58
2022-12-25T22:32:50.679Z,34.30
2022-12-25T22:35:21.885Z,32.80
2022-12-25T22:37:50.768Z,31.75
2022-12-25T22:40:21.382Z,33.22
2022-12-25T22:42:49.884Z,33.00
2022-12-25T22:45:18.762Z,34.72
2022-12-25T22:47:47.356Z,33.80
2022-12-25T22:50:16.714Z,34.28
2022-12-25T22:52:47.336Z,33.30
2022-12-25T22:55:19.548Z,33.17
2022-12-25T22:57:49.270Z,34.17
2022-12-25T23:00:18.234Z,33.60
2022-12-25T23:02:47.119Z,36.65
2022-12-25T23:05:16.156Z,41.08
2022-12-25T23:07:46.105Z,38.00
2022-12-25T23:10:14.869Z,35.65
2022-12-25T23:13:00.812Z,34.63
2022-12-25T23:15:29.487Z,36.50
2022-12-25T23:18:15.461Z,36.10
2022-12-25T23:21:01.513Z,35.38
2022-12-25T23:23:49.051Z,33.67
2022-12-25T23:26:19.727Z,35.00
2022-12-25T23:29:14.607Z,35.30
2022-12-25T23:31:43.904Z,32.45
2022-12-25T23:34:12.693Z,33.63
2022-12-25T23:36:41.112Z,31.38
2022-12-25T23:39:11.045Z,31.63
2022-12-25T23:41:40.428Z,32.03
2022-12-25T23:44:10.477Z,31.27
2022-12-25T23:46:39.664Z,33.22
2022-12-25T23:49:09.809Z,34.00
2022-12-25T23:51:43.105Z,34.72
2022-12-25T23:54:16.082Z,31.98
2022-12-25T23:56:45.012Z,33.15
2022-12-25T23:59:14.271Z,33.10
